createdAt,value
2023-04-24T00:01:27.886Z,11.92
2023-04-24T00:06:35.937Z,11.95
2023-04-24T00:11:41.426Z,11.94
2023-04-24T00:16:46.970Z,11.85
2023-04-24T00:21:53.453Z,11.85
2023-04-24T00:26:58.948Z,11.82
2023-04-24T00:32:05.036Z,11.72
2023-04-24T00:37:12.661Z,11.77
2023-04-24T00:42:18.170Z,11.88
2023-04-24T00:47:24.378Z,11.92
2023-04-24T00:52:31.622Z,11.93
2023-04-24T00:57:37.173Z,11.94
2023-04-24T01:02:45.407Z,11.95
2023-04-24T01:07:51.394Z,11.94
2023-04-24T01:12:57.607Z,11.93
2023-04-24T01:18:03.524Z,11.92
2023-04-24T01:23:10.651Z,11.92
2023-04-24T01:28:16.482Z,11.92
2023-04-24T01:33:23.655Z,11.90
2023-04-24T01:38:29.410Z,11.88
2023-04-24T01:43:35.032Z,11.85
2023-04-24T01:48:40.590Z,11.85
2023-04-24T01:53:46.173Z,11.82
2023-04-24T01:58:53.894Z,11.79
2023-04-24T02:03:59.467Z,11.77
2023-04-24T02:09:05.399Z,11.75
2023-04-24T02:14:11.128Z,11.78
2023-04-24T02:19:18.325Z,11.78
2023-04-24T02:24:23.885Z,11.76
2023-04-24T02:29:29.388Z,11.77
2023-04-24T02:34:34.932Z,11.79
2023-04-24T02:39:40.483Z,11.81
2023-04-24T02:44:46.158Z,11.83
2023-04-24T02:49:51.601Z,11.83
2023-04-24T02:54:57.000Z,11.79
2023-04-24T03:00:02.583Z,11.75
2023-04-24T03:05:08.630Z,11.73
2023-04-24T03:10:14.173Z,11.72
2023-04-24T03:15:20.301Z,11.74
2023-04-24T03:20:26.848Z,11.78
2023-04-24T03:25:33.214Z,11.84
2023-04-24T03:30:39.447Z,11.91
2023-04-24T03:35:46.110Z,11.97
2023-04-24T03:40:51.714Z,12.08
2023-04-24T03:46:01.791Z,12.17
2023-04-24T03:51:09.034Z,12.24
2023-04-24T03:56:16.030Z,12.27
2023-04-24T04:01:21.894Z,12.35
2023-04-24T04:06:29.742Z,12.41
2023-04-24T04:11:36.939Z,12.52
2023-04-24T04:16:43.312Z,12.61
2023-04-24T04:21:50.758Z,12.71
2023-04-24T04:26:59.290Z,12.78
2023-04-24T04:32:09.512Z,12.85
2023-04-24T04:37:15.597Z,12.95
2023-04-24T04:42:29.418Z,13.08
2023-04-24T04:47:35.213Z,13.22
2023-04-24T04:52:41.327Z,13.35
2023-04-24T04:57:49.002Z,13.49
2023-04-24T05:02:56.334Z,13.80
2023-04-24T05:08:02.046Z,14.12
2023-04-24T05:13:07.728Z,14.17
2023-04-24T05:18:14.258Z,14.18
2023-04-24T05:23:19.997Z,14.20
2023-04-24T05:28:28.921Z,14.27
2023-04-24T05:33:36.174Z,14.32
2023-04-24T05:38:42.273Z,14.38
2023-04-24T05:43:47.973Z,14.46
2023-04-24T05:48:53.557Z,14.60
2023-04-24T05:53:59.194Z,14.55
2023-04-24T05:59:04.777Z,14.52
2023-04-24T06:04:10.545Z,14.53
2023-04-24T06:09:17.992Z,14.55
2023-04-24T06:14:23.752Z,14.61
2023-04-24T06:19:43.594Z,14.71
2023-04-24T06:24:49.747Z,14.73
2023-04-24T06:29:56.508Z,14.92
2023-04-24T06:35:02.324Z,14.99
2023-04-24T06:40:08.933Z,15.08
2023-04-24T06:45:14.426Z,15.22
2023-04-24T06:50:20.042Z,15.49
2023-04-24T06:55:25.707Z,15.43
2023-04-24T07:00:31.369Z,15.58
2023-04-24T07:05:38.194Z,15.52
2023-04-24T07:10:43.879Z,15.77
2023-04-24T07:15:51.309Z,15.61
2023-04-24T07:20:57.517Z,15.65
2023-04-24T07:26:03.453Z,15.69
2023-04-24T07:31:10.462Z,15.71
2023-04-24T07:36:20.102Z,15.72
2023-04-24T07:41:26.307Z,15.75
2023-04-24T07:46:32.986Z,15.63
2023-04-24T07:51:39.526Z,15.78
2023-04-24T07:56:46.223Z,15.85
2023-04-24T08:01:51.931Z,15.79
2023-04-24T08:06:57.487Z,15.82
2023-04-24T08:12:03.670Z,15.78
2023-04-24T08:17:09.249Z,15.86
2023-04-24T08:22:14.898Z,16.25
2023-04-24T08:27:20.412Z,16.26
2023-04-24T08:32:26.368Z,16.38
2023-04-24T08:37:32.063Z,16.61
2023-04-24T08:42:39.308Z,16.62
2023-04-24T08:47:46.390Z,16.65
2023-04-24T08:52:55.279Z,16.74
2023-04-24T08:58:03.220Z,16.98
2023-04-24T09:03:09.082Z,17.29
2023-04-24T09:08:16.417Z,16.99
2023-04-24T09:13:23.068Z,17.30
2023-04-24T09:18:28.981Z,17.40
2023-04-24T09:23:35.167Z,17.42
2023-04-24T09:28:42.234Z,17.45
2023-04-24T09:34:08.281Z,17.67
2023-04-24T09:39:20.906Z,17.76
2023-04-24T09:44:29.041Z,17.67
2023-04-24T09:49:36.154Z,17.71
2023-04-24T09:54:42.512Z,17.71
2023-04-24T09:59:48.958Z,17.81
2023-04-24T10:05:01.079Z,17.91
2023-04-24T10:10:08.558Z,18.46
2023-04-24T10:15:15.652Z,19.09
2023-04-24T10:20:27.429Z,19.20
2023-04-24T10:25:35.125Z,19.20
2023-04-24T10:30:43.327Z,19.13
2023-04-24T10:35:51.863Z,19.06
2023-04-24T10:41:19.280Z,19.16
2023-04-24T10:46:26.452Z,19.47
2023-04-24T10:51:49.819Z,19.24
2023-04-24T10:56:58.263Z,19.35
2023-04-24T11:02:03.687Z,19.29
2023-04-24T11:07:10.895Z,19.35
2023-04-24T11:12:16.385Z,19.42
2023-04-24T11:17:38.656Z,19.04
2023-04-24T11:22:44.398Z,19.12
2023-04-24T11:27:51.075Z,19.10
2023-04-24T11:32:56.861Z,19.22
2023-04-24T11:38:22.773Z,19.36
2023-04-24T11:43:12.453Z,19.29
2023-04-24T11:48:23.448Z,19.29
2023-04-24T11:53:29.601Z,19.41
2023-04-24T11:58:40.312Z,19.70
2023-04-24T12:03:52.591Z,19.68
2023-04-24T12:09:04.975Z,19.97
2023-04-24T12:14:14.179Z,19.78
2023-04-24T12:19:26.414Z,19.55
2023-04-24T12:24:32.629Z,19.34
2023-04-24T12:29:38.270Z,19.40
2023-04-24T12:34:45.612Z,19.34
2023-04-24T12:40:09.451Z,19.22
2023-04-24T12:45:16.196Z,19.39
2023-04-24T12:50:21.887Z,19.67
2023-04-24T12:55:28.626Z,19.73
2023-04-24T13:00:35.008Z,19.93
2023-04-24T13:05:40.879Z,19.83
2023-04-24T13:10:46.745Z,19.88
2023-04-24T13:16:19.045Z,19.97
2023-04-24T13:21:24.635Z,20.15
2023-04-24T13:26:30.086Z,20.26
2023-04-24T13:31:35.870Z,19.94
2023-04-24T13:36:42.001Z,20.00
2023-04-24T13:41:49.279Z,20.14
2023-04-24T13:46:57.987Z,20.35
2023-04-24T13:52:04.545Z,20.20
2023-04-24T13:57:10.047Z,20.58
2023-04-24T14:02:15.912Z,20.52
2023-04-24T14:07:21.831Z,20.38
2023-04-24T14:12:28.167Z,20.55
2023-04-24T14:17:33.780Z,20.45
2023-04-24T14:22:39.237Z,20.54
2023-04-24T14:27:44.879Z,20.22
2023-04-24T14:32:51.188Z,19.68
2023-04-24T14:37:57.225Z,18.63
2023-04-24T14:43:02.800Z,18.36
2023-04-24T14:48:09.231Z,18.05
2023-04-24T14:53:15.290Z,17.64
2023-04-24T14:58:20.888Z,17.53
2023-04-24T15:03:28.246Z,17.51
2023-04-24T15:08:34.072Z,17.32
2023-04-24T15:13:40.976Z,17.41
2023-04-24T15:18:46.569Z,17.78
2023-04-24T15:23:52.166Z,17.79
2023-04-24T15:28:57.713Z,17.67
2023-04-24T15:34:03.754Z,17.84
2023-04-24T15:39:11.022Z,17.22
2023-04-24T15:44:16.467Z,16.96
2023-04-24T15:49:22.211Z,16.75
2023-04-24T15:54:27.730Z,16.83
2023-04-24T15:59:34.464Z,16.68
2023-04-24T16:04:40.097Z,16.50
2023-04-24T16:09:46.117Z,16.59
2023-04-24T16:14:51.795Z,16.43
2023-04-24T16:19:57.242Z,16.50
2023-04-24T16:25:03.043Z,16.44
2023-04-24T16:30:09.878Z,16.41
2023-04-24T16:35:15.384Z,16.23
2023-04-24T16:40:21.084Z,16.44
2023-04-24T16:45:26.703Z,16.37
2023-04-24T16:50:32.312Z,16.63
2023-04-24T16:55:37.748Z,16.86
2023-04-24T17:00:43.464Z,16.86
2023-04-24T17:05:49.012Z,17.11
2023-04-24T17:10:54.586Z,17.14
2023-04-24T17:16:00.204Z,17.02
2023-04-24T17:21:05.835Z,16.95
2023-04-24T17:26:12.643Z,17.03
2023-04-24T17:31:18.261Z,16.88
2023-04-24T17:36:23.835Z,16.92
2023-04-24T17:41:29.331Z,16.86
2023-04-24T17:46:35.654Z,16.84
2023-04-24T17:51:41.438Z,16.91
2023-04-24T17:56:47.444Z,16.83
2023-04-24T18:01:53.604Z,16.85
2023-04-24T18:06:59.280Z,16.82
2023-04-24T18:12:05.590Z,16.88
2023-04-24T18:17:11.583Z,16.85
2023-04-24T18:22:17.151Z,16.77
2023-04-24T18:27:24.333Z,16.64
2023-04-24T18:32:30.220Z,16.54
2023-04-24T18:37:35.849Z,16.44
2023-04-24T18:42:41.704Z,16.36
2023-04-24T18:47:47.320Z,16.25
2023-04-24T18:52:53.058Z,15.99
2023-04-24T18:57:58.503Z,15.46
2023-04-24T19:03:04.339Z,15.09
2023-04-24T19:08:10.201Z,14.78
2023-04-24T19:13:16.159Z,14.68
2023-04-24T19:18:21.679Z,14.60
2023-04-24T19:23:30.659Z,14.43
2023-04-24T19:28:37.894Z,14.34
2023-04-24T19:33:43.489Z,14.32
2023-04-24T19:38:51.055Z,14.17
2023-04-24T19:43:56.800Z,14.05
2023-04-24T19:49:02.384Z,14.00
2023-04-24T19:54:07.879Z,13.88
2023-04-24T19:59:13.312Z,13.77
2023-04-24T20:04:20.474Z,13.49
2023-04-24T20:09:26.052Z,13.50
2023-04-24T20:14:31.805Z,13.49
2023-04-24T20:19:37.884Z,13.44
2023-04-24T20:24:44.032Z,13.32
2023-04-24T20:29:49.536Z,13.23
2023-04-24T20:34:55.372Z,13.11
2023-04-24T20:40:02.461Z,12.82
2023-04-24T20:45:09.048Z,12.74
2023-04-24T20:50:14.566Z,12.72
2023-04-24T20:55:20.111Z,12.57
2023-04-24T21:00:27.238Z,12.79
2023-04-24T21:05:33.620Z,12.43
2023-04-24T21:10:39.061Z,12.25
2023-04-24T21:15:44.676Z,12.14
2023-04-24T21:20:51.860Z,12.10
2023-04-24T21:25:58.604Z,12.20
2023-04-24T21:31:04.613Z,12.15
2023-04-24T21:36:10.807Z,11.93
2023-04-24T21:41:16.370Z,11.98
2023-04-24T21:46:21.976Z,11.77
2023-04-24T21:51:28.518Z,11.63
2023-04-24T21:56:34.527Z,11.53
2023-04-24T22:01:40.247Z,11.65
2023-04-24T22:06:45.861Z,11.60
2023-04-24T22:11:51.710Z,11.67
2023-04-24T22:16:57.925Z,11.57
2023-04-24T22:22:03.583Z,11.63
2023-04-24T22:27:09.118Z,11.66
2023-04-24T22:32:14.610Z,11.62
2023-04-24T22:37:20.035Z,11.59
2023-04-24T22:42:26.153Z,11.48
2023-04-24T22:47:32.124Z,11.34
2023-04-24T22:52:38.269Z,11.35
2023-04-24T22:57:44.238Z,11.23
2023-04-24T23:02:50.069Z,11.20
2023-04-24T23:07:55.836Z,11.17
2023-04-24T23:13:01.310Z,11.30
2023-04-24T23:18:07.023Z,11.31
2023-04-24T23:23:12.869Z,11.13
2023-04-24T23:28:19.363Z,11.01
2023-04-24T23:33:24.848Z,10.98
2023-04-24T23:38:39.606Z,10.99
2023-04-24T23:43:38.781Z,10.94
2023-04-24T23:48:44.285Z,10.90
2023-04-24T23:53:50.217Z,10.90
2023-04-24T23:58:56.328Z,10.86
